createdAt,value
2023-04-10T00:01:27.899Z,97192.03
2023-04-10T00:03:57.810Z,97185.94
2023-04-10T00:06:27.953Z,97178.31
2023-04-10T00:08:55.694Z,97179.44
2023-04-10T00:11:23.385Z,97178.53
2023-04-10T00:13:51.254Z,97174.19
2023-04-10T00:16:19.158Z,97174.53
2023-04-10T00:18:48.477Z,97174.19
2023-04-10T00:21:17.334Z,97175.09
2023-04-10T00:23:45.408Z,97167.88
2023-04-10T00:26:13.156Z,97161.22
2023-04-10T00:28:42.441Z,97165.00
2023-04-10T00:31:10.688Z,97162.22
2023-04-10T00:33:38.476Z,97165.44
2023-04-10T00:36:08.240Z,97159.41
2023-04-10T00:38:37.512Z,97160.56
2023-04-10T00:41:06.355Z,97159.63
2023-04-10T00:43:34.145Z,97160.84
2023-04-10T00:46:02.111Z,97159.16
2023-04-10T00:48:30.527Z,97142.53
2023-04-10T00:50:58.822Z,97149.13
2023-04-10T00:53:28.385Z,97145.03
2023-04-10T00:55:57.522Z,97144.88
2023-04-10T00:58:26.796Z,97145.09
2023-04-10T01:00:54.912Z,97145.25
2023-04-10T01:03:24.000Z,97153.53
2023-04-10T01:06:01.953Z,97156.13
2023-04-10T01:08:40.636Z,97146.72
2023-04-10T01:11:14.572Z,97156.78
2023-04-10T01:13:48.490Z,97165.59
2023-04-10T01:16:20.715Z,97156.88
2023-04-10T01:18:54.995Z,97164.94
2023-04-10T01:21:24.717Z,97170.19
2023-04-10T01:24:13.929Z,97163.47
2023-04-10T01:26:57.484Z,97163.41
2023-04-10T01:29:30.459Z,97162.56
2023-04-10T01:32:04.627Z,97160.16
2023-04-10T01:34:37.672Z,97165.50
2023-04-10T01:37:07.763Z,97162.09
2023-04-10T01:39:38.933Z,97158.72
2023-04-10T01:42:08.402Z,97152.03
2023-04-10T01:44:47.349Z,97148.28
2023-04-10T01:47:17.883Z,97148.81
2023-04-10T01:49:48.692Z,97148.31
2023-04-10T01:52:18.360Z,97145.13
2023-04-10T01:54:52.752Z,97148.16
2023-04-10T01:57:26.823Z,97139.63
2023-04-10T01:59:59.396Z,97140.00
2023-04-10T02:02:32.125Z,97144.66
2023-04-10T02:05:00.219Z,97142.81
2023-04-10T02:07:47.432Z,97142.03
2023-04-10T02:10:23.366Z,97145.88
2023-04-10T02:12:56.542Z,97142.78
2023-04-10T02:15:28.529Z,97143.63
2023-04-10T02:17:59.884Z,97148.84
2023-04-10T02:20:28.137Z,97143.75
2023-04-10T02:22:58.123Z,97151.69
2023-04-10T02:25:26.114Z,97140.59
2023-04-10T02:27:53.915Z,97135.50
2023-04-10T02:30:22.114Z,97139.09
2023-04-10T02:32:51.850Z,97143.59
2023-04-10T02:35:20.257Z,97140.84
2023-04-10T02:37:48.895Z,97145.31
2023-04-10T02:40:17.091Z,97141.91
2023-04-10T02:42:55.238Z,97151.72
2023-04-10T02:45:23.077Z,97153.59
2023-04-10T02:47:52.236Z,97151.81
2023-04-10T02:50:21.491Z,97158.34
2023-04-10T02:52:49.373Z,97155.72
2023-04-10T02:55:17.192Z,97161.09
2023-04-10T02:57:45.046Z,97166.53
2023-04-10T03:00:14.110Z,97159.50
2023-04-10T03:03:06.821Z,97161.50
2023-04-10T03:05:42.946Z,97158.06
2023-04-10T03:08:11.151Z,97157.31
2023-04-10T03:10:38.861Z,97148.50
2023-04-10T03:13:06.659Z,97145.06
2023-04-10T03:15:34.554Z,97136.44
2023-04-10T03:18:02.402Z,97142.56
2023-04-10T03:20:32.197Z,97140.81
2023-04-10T03:23:00.626Z,97135.59
2023-04-10T03:25:28.728Z,97130.84
2023-04-10T03:27:57.391Z,97135.53
2023-04-10T03:30:25.526Z,97135.25
2023-04-10T03:32:53.908Z,97126.72
2023-04-10T03:35:21.963Z,97128.41
2023-04-10T03:37:51.035Z,97123.38
2023-04-10T03:40:18.885Z,97116.47
2023-04-10T03:42:46.762Z,97116.59
2023-04-10T03:45:15.384Z,97122.66
2023-04-10T03:47:43.360Z,97114.19
2023-04-10T03:50:14.065Z,97113.38
2023-04-10T03:52:49.808Z,97110.13
2023-04-10T03:55:21.331Z,97111.81
2023-04-10T03:57:51.085Z,97103.31
2023-04-10T04:00:21.972Z,97109.50
2023-04-10T04:02:50.486Z,97113.84
2023-04-10T04:05:42.834Z,97106.09
2023-04-10T04:08:25.757Z,97112.31
2023-04-10T04:11:24.742Z,97101.06
2023-04-10T04:14:02.121Z,97093.25
2023-04-10T04:16:44.578Z,97088.91
2023-04-10T04:19:31.024Z,97087.00
2023-04-10T04:22:13.058Z,97083.88
2023-04-10T04:24:59.732Z,97092.75
2023-04-10T04:27:51.658Z,97089.25
2023-04-10T04:30:42.522Z,97079.03
2023-04-10T04:33:36.313Z,97093.66
2023-04-10T04:36:12.547Z,97092.63
2023-04-10T04:38:43.408Z,97100.44
2023-04-10T04:41:25.442Z,97094.06
2023-04-10T04:44:01.122Z,97090.78
2023-04-10T04:46:47.139Z,97092.75
2023-04-10T04:49:33.951Z,97096.50
2023-04-10T04:52:28.315Z,97086.91
2023-04-10T04:55:06.779Z,97093.91
2023-04-10T04:57:54.546Z,97095.72
2023-04-10T05:00:56.869Z,97096.75
2023-04-10T05:03:51.068Z,97096.88
2023-04-10T05:06:24.904Z,97104.03
2023-04-10T05:09:12.182Z,97097.91
2023-04-10T05:12:03.883Z,97104.75
2023-04-10T05:14:57.826Z,97101.50
2023-04-10T05:17:39.972Z,97097.91
2023-04-10T05:20:27.202Z,97107.53
2023-04-10T05:23:11.485Z,97117.28
2023-04-10T05:25:57.692Z,97121.38
2023-04-10T05:28:57.618Z,97117.03
2023-04-10T05:31:44.169Z,97116.06
2023-04-10T05:34:20.586Z,97116.78
2023-04-10T05:37:06.983Z,97119.06
2023-04-10T05:39:46.114Z,97110.13
2023-04-10T05:42:32.450Z,97117.72
2023-04-10T05:45:12.246Z,97116.00
2023-04-10T05:47:54.725Z,97118.34
2023-04-10T05:50:37.525Z,97124.22
2023-04-10T05:53:31.248Z,97131.03
2023-04-10T05:56:15.281Z,97126.59
2023-04-10T05:59:04.138Z,97129.16
2023-04-10T06:02:01.711Z,97132.22
2023-04-10T06:04:29.984Z,97139.09
2023-04-10T06:07:02.261Z,97130.06
2023-04-10T06:09:33.553Z,97129.03
2023-04-10T06:12:01.797Z,97134.00
2023-04-10T06:14:29.863Z,97131.00
2023-04-10T06:16:58.990Z,97124.88
2023-04-10T06:19:27.099Z,97128.97
2023-04-10T06:21:55.277Z,97126.09
2023-04-10T06:24:25.427Z,97124.13
2023-04-10T06:26:53.295Z,97123.75
2023-04-10T06:29:21.217Z,97117.31
2023-04-10T06:31:49.730Z,97112.69
2023-04-10T06:34:17.778Z,97117.22
2023-04-10T06:36:56.133Z,97113.34
2023-04-10T06:39:26.099Z,97115.31
2023-04-10T06:41:54.099Z,97117.44
2023-04-10T06:44:32.950Z,97111.16
2023-04-10T06:47:00.853Z,97113.91
2023-04-10T06:49:28.711Z,97123.09
2023-04-10T06:51:56.469Z,97118.19
2023-04-10T06:54:25.641Z,97107.88
2023-04-10T06:56:58.617Z,97103.91
2023-04-10T06:59:26.425Z,97101.84
2023-04-10T07:01:54.198Z,97099.53
2023-04-10T07:04:22.037Z,97089.34
2023-04-10T07:06:50.147Z,97082.50
2023-04-10T07:09:18.220Z,97088.66
2023-04-10T07:11:47.500Z,97084.38
2023-04-10T07:14:15.252Z,97081.19
2023-04-10T07:16:43.115Z,97078.41
2023-04-10T07:19:11.187Z,97084.03
2023-04-10T07:21:38.961Z,97085.41
2023-04-10T07:24:07.096Z,97087.59
2023-04-10T07:26:34.963Z,97087.81
2023-04-10T07:29:04.248Z,97094.34
2023-04-10T07:31:32.175Z,97085.78
2023-04-10T07:33:59.921Z,97086.28
2023-04-10T07:36:27.988Z,97091.00
2023-04-10T07:38:56.533Z,97082.75
2023-04-10T07:41:24.733Z,97078.41
2023-04-10T07:43:52.416Z,97079.22
2023-04-10T07:46:21.666Z,97083.28
2023-04-10T07:48:49.553Z,97093.75
2023-04-10T07:51:17.399Z,97086.31
2023-04-10T07:53:45.169Z,97090.94
2023-04-10T07:56:17.176Z,97081.75
2023-04-10T07:58:45.071Z,97073.06
2023-04-10T08:01:13.115Z,97076.63
2023-04-10T08:03:44.361Z,97083.28
2023-04-10T08:06:12.994Z,97080.59
2023-04-10T08:08:42.946Z,97081.97
2023-04-10T08:11:25.181Z,97073.13
2023-04-10T08:13:53.255Z,97067.28
2023-04-10T08:16:24.627Z,97066.53
2023-04-10T08:18:54.169Z,97068.41
2023-04-10T08:21:23.125Z,97067.13
2023-04-10T08:23:51.742Z,97068.75
2023-04-10T08:26:20.031Z,97064.84
2023-04-10T08:28:50.066Z,97066.97
2023-04-10T08:31:18.257Z,97071.00
2023-04-10T08:33:46.237Z,97066.75
2023-04-10T08:36:18.361Z,97072.25
2023-04-10T08:38:49.000Z,97069.28
2023-04-10T08:41:18.230Z,97069.50
2023-04-10T08:43:46.711Z,97062.41
2023-04-10T08:46:15.556Z,97062.66
2023-04-10T08:48:48.670Z,97069.91
2023-04-10T08:51:26.290Z,97070.72
2023-04-10T08:54:06.385Z,97059.75
2023-04-10T08:56:35.928Z,97059.09
2023-04-10T08:59:04.471Z,97061.19
2023-04-10T09:01:32.385Z,97063.25
2023-04-10T09:04:01.033Z,97063.50
2023-04-10T09:06:32.061Z,97059.56
2023-04-10T09:12:01.407Z,97051.16
2023-04-10T09:14:31.354Z,97063.94
2023-04-10T09:17:14.552Z,97062.69
2023-04-10T09:19:42.598Z,97056.00
2023-04-10T09:22:12.021Z,97046.25
2023-04-10T09:24:41.959Z,97039.81
2023-04-10T09:27:10.447Z,97036.97
2023-04-10T09:29:43.981Z,97032.31
2023-04-10T09:32:12.374Z,97032.47
2023-04-10T09:35:05.760Z,97031.84
2023-04-10T09:37:35.617Z,97017.19
2023-04-10T09:40:04.141Z,97012.28
2023-04-10T09:42:33.612Z,97006.72
2023-04-10T09:45:02.357Z,97017.56
2023-04-10T09:47:30.891Z,97011.69
2023-04-10T09:50:00.717Z,97009.03
2023-04-10T09:52:32.331Z,97001.66
2023-04-10T09:55:04.121Z,96996.50
2023-04-10T09:57:34.215Z,96981.56
2023-04-10T10:00:04.169Z,96989.53
2023-04-10T10:02:39.827Z,96986.38
2023-04-10T10:05:09.109Z,96975.03
2023-04-10T10:07:37.701Z,96979.97
2023-04-10T10:10:08.970Z,96974.03
2023-04-10T10:12:44.549Z,96975.47
2023-04-10T10:15:17.764Z,96959.19
2023-04-10T10:17:52.488Z,96951.56
2023-04-10T10:20:23.492Z,96949.00
2023-04-10T10:22:51.784Z,96957.19
2023-04-10T10:25:21.315Z,96951.94
2023-04-10T10:27:52.426Z,96938.03
2023-04-10T10:32:53.785Z,96930.00
2023-04-10T10:35:23.040Z,96930.66
2023-04-10T10:37:52.456Z,96925.97
2023-04-10T10:40:29.965Z,96920.13
2023-04-10T10:43:22.909Z,96915.63
2023-04-10T10:45:58.029Z,96913.44
2023-04-10T10:48:26.073Z,96909.44
2023-04-10T10:50:57.424Z,96904.31
2023-04-10T10:53:36.275Z,96904.50
2023-04-10T10:56:37.078Z,96903.59
2023-04-10T10:59:05.282Z,96906.25
2023-04-10T11:01:33.450Z,96893.31
2023-04-10T11:04:02.332Z,96890.63
2023-04-10T11:06:53.108Z,96898.22
2023-04-10T11:09:49.414Z,96894.47
2023-04-10T11:12:21.408Z,96890.84
2023-04-10T11:14:59.445Z,96890.69
2023-04-10T11:17:49.794Z,96879.75
2023-04-10T11:20:18.321Z,96884.97
2023-04-10T11:23:08.571Z,96880.69
2023-04-10T11:25:51.451Z,96882.06
2023-04-10T11:28:47.781Z,96873.22
2023-04-10T11:31:18.643Z,96865.25
2023-04-10T11:33:47.120Z,96862.47
2023-04-10T11:36:17.540Z,96868.50
2023-04-10T11:39:05.735Z,96868.78
2023-04-10T11:41:35.676Z,96865.56
2023-04-10T11:44:07.953Z,96864.75
2023-04-10T11:46:38.347Z,96856.78
2023-04-10T11:49:07.969Z,96858.47
2023-04-10T11:51:36.336Z,96867.28
2023-04-10T11:54:08.984Z,96855.94
2023-04-10T11:56:37.865Z,96845.00
2023-04-10T11:59:10.555Z,96831.75
2023-04-10T12:01:41.105Z,96830.88
2023-04-10T12:04:16.439Z,96824.03
2023-04-10T12:06:46.119Z,96826.69
2023-04-10T12:09:15.742Z,96815.16
2023-04-10T12:11:51.472Z,96810.41
2023-04-10T12:14:21.614Z,96810.78
2023-04-10T12:16:50.203Z,96804.81
2023-04-10T12:19:18.994Z,96811.22
2023-04-10T12:21:47.072Z,96804.47
2023-04-10T12:24:34.967Z,96799.59
2023-04-10T12:27:02.929Z,96802.25
2023-04-10T12:29:32.267Z,96797.88
2023-04-10T12:32:08.942Z,96791.00
2023-04-10T12:34:38.550Z,96791.00
2023-04-10T12:37:07.056Z,96791.19
2023-04-10T12:39:34.918Z,96795.66
2023-04-10T12:42:13.502Z,96783.03
2023-04-10T12:44:56.868Z,96781.31
2023-04-10T12:47:25.909Z,96777.69
2023-04-10T12:50:06.481Z,96768.66
2023-04-10T12:52:35.871Z,96773.16
2023-04-10T12:55:14.661Z,96761.66
2023-04-10T12:57:43.608Z,96767.50
2023-04-10T13:00:16.145Z,96766.69
2023-04-10T13:02:44.790Z,96758.31
2023-04-10T13:05:13.516Z,96766.25
2023-04-10T13:07:44.501Z,96757.50
2023-04-10T13:10:12.465Z,96749.19
2023-04-10T13:12:42.068Z,96749.88
2023-04-10T13:15:11.504Z,96748.22
2023-04-10T13:17:41.857Z,96745.69
2023-04-10T13:20:12.283Z,96741.38
2023-04-10T13:22:40.297Z,96742.53
2023-04-10T13:25:10.283Z,96739.31
2023-04-10T13:27:38.084Z,96734.75
2023-04-10T13:30:07.113Z,96726.44
2023-04-10T13:32:35.223Z,96738.50
2023-04-10T13:35:04.941Z,96736.88
2023-04-10T13:37:32.898Z,96735.69
2023-04-10T13:40:00.771Z,96726.22
2023-04-10T13:42:28.885Z,96726.53
2023-04-10T13:44:56.872Z,96731.69
2023-04-10T13:47:24.759Z,96720.09
2023-04-10T13:49:52.632Z,96715.53
2023-04-10T13:52:21.989Z,96714.34
2023-04-10T13:54:49.879Z,96706.94
2023-04-10T13:57:17.780Z,96703.81
2023-04-10T13:59:45.726Z,96708.53
2023-04-10T14:02:13.793Z,96709.53
2023-04-10T14:04:42.692Z,96707.22
2023-04-10T14:07:11.849Z,96711.41
2023-04-10T14:09:41.184Z,96691.41
2023-04-10T14:12:09.101Z,96691.75
2023-04-10T14:14:37.860Z,96686.66
2023-04-10T14:17:06.379Z,96687.63
2023-04-10T14:19:36.152Z,96681.13
2023-04-10T14:22:04.303Z,96680.84
2023-04-10T14:24:32.169Z,96679.69
2023-04-10T14:27:01.906Z,96675.66
2023-04-10T14:29:37.376Z,96673.81
2023-04-10T14:32:07.388Z,96670.09
2023-04-10T14:34:35.310Z,96676.66
2023-04-10T14:37:03.514Z,96678.16
2023-04-10T14:39:31.489Z,96663.81
2023-04-10T14:41:59.326Z,96679.84
2023-04-10T14:44:28.578Z,96675.88
2023-04-10T14:46:56.562Z,96668.06
2023-04-10T14:49:24.468Z,96666.38
2023-04-10T14:51:52.763Z,96665.69
2023-04-10T14:54:21.850Z,96664.88
2023-04-10T14:56:50.401Z,96658.69
2023-04-10T14:59:18.873Z,96654.34
2023-04-10T15:01:48.363Z,96651.03
2023-04-10T15:04:16.542Z,96652.84
2023-04-10T15:06:44.405Z,96645.00
2023-04-10T15:09:12.473Z,96640.66
2023-04-10T15:11:40.406Z,96634.47
2023-04-10T15:14:08.756Z,96628.81
2023-04-10T15:16:36.684Z,96634.34
2023-04-10T15:19:06.071Z,96630.97
2023-04-10T15:21:34.299Z,96624.44
2023-04-10T15:24:02.275Z,96618.94
2023-04-10T15:26:30.217Z,96617.44
2023-04-10T15:28:58.626Z,96606.09
2023-04-10T15:31:26.673Z,96606.78
2023-04-10T15:33:54.856Z,96616.25
2023-04-10T15:36:24.301Z,96609.56
2023-04-10T15:38:52.218Z,96603.22
2023-04-10T15:41:20.616Z,96598.19
2023-04-10T15:43:49.578Z,96607.69
2023-04-10T15:46:19.139Z,96597.00
2023-04-10T15:48:47.353Z,96589.47
2023-04-10T15:51:15.611Z,96594.13
2023-04-10T15:53:45.186Z,96585.91
2023-04-10T15:56:16.014Z,96584.25
2023-04-10T15:58:43.912Z,96582.03
2023-04-10T16:01:12.115Z,96578.69
2023-04-10T16:03:40.544Z,96572.81
2023-04-10T16:06:09.636Z,96563.44
2023-04-10T16:08:37.768Z,96564.94
2023-04-10T16:11:07.712Z,96568.75
2023-04-10T16:13:35.650Z,96562.72
2023-04-10T16:16:04.590Z,96566.53
2023-04-10T16:18:32.601Z,96558.88
2023-04-10T16:21:00.864Z,96560.03
2023-04-10T16:23:28.789Z,96562.28
2023-04-10T16:25:57.234Z,96560.78
2023-04-10T16:28:28.168Z,96556.78
2023-04-10T16:30:56.835Z,96561.41
2023-04-10T16:33:24.941Z,96552.72
2023-04-10T16:35:53.831Z,96556.38
2023-04-10T16:38:21.733Z,96540.72
2023-04-10T16:40:49.609Z,96534.69
2023-04-10T16:43:17.654Z,96522.66
2023-04-10T16:45:46.916Z,96522.00
2023-04-10T16:48:14.709Z,96519.81
2023-04-10T16:50:42.631Z,96515.63
2023-04-10T16:53:10.570Z,96517.06
2023-04-10T16:55:38.468Z,96508.72
2023-04-10T16:58:06.554Z,96514.19
2023-04-10T17:00:36.784Z,96515.63
2023-04-10T17:03:06.906Z,96515.25
2023-04-10T17:05:36.892Z,96514.72
2023-04-10T17:08:05.314Z,96509.56
2023-04-10T17:10:33.474Z,96515.50
2023-04-10T17:13:06.794Z,96510.63
2023-04-10T17:15:34.803Z,96503.09
2023-04-10T17:18:02.904Z,96508.19
2023-04-10T17:20:36.702Z,96506.09
2023-04-10T17:23:06.743Z,96511.88
2023-04-10T17:25:34.857Z,96514.81
2023-04-10T17:28:02.770Z,96506.59
2023-04-10T17:30:30.802Z,96506.06
2023-04-10T17:33:00.010Z,96503.03
2023-04-10T17:35:27.920Z,96496.88
2023-04-10T17:37:57.309Z,96503.94
2023-04-10T17:40:25.138Z,96500.72
2023-04-10T17:42:53.248Z,96487.03
2023-04-10T17:45:22.150Z,96493.50
2023-04-10T17:47:50.143Z,96492.28
2023-04-10T17:50:18.351Z,96489.88
2023-04-10T17:52:46.483Z,96483.22
2023-04-10T17:55:21.286Z,96481.97
2023-04-10T17:57:49.524Z,96468.16
2023-04-10T18:00:20.538Z,96471.41
2023-04-10T18:02:49.059Z,96473.53
2023-04-10T18:05:18.961Z,96470.31
2023-04-10T18:07:47.327Z,96467.97
2023-04-10T18:10:16.750Z,96460.25
2023-04-10T18:12:44.818Z,96446.31
2023-04-10T18:15:14.322Z,96449.94
2023-04-10T18:17:43.914Z,96436.13
2023-04-10T18:20:12.311Z,96441.56
2023-04-10T18:22:40.284Z,96413.34
2023-04-10T18:25:09.639Z,96417.97
2023-04-10T18:27:47.917Z,96435.56
2023-04-10T18:30:20.192Z,96452.06
2023-04-10T18:32:51.881Z,96468.31
2023-04-10T18:35:20.143Z,96475.59
2023-04-10T18:37:47.976Z,96474.63
2023-04-10T18:40:16.892Z,96477.41
2023-04-10T18:42:46.586Z,96488.47
2023-04-10T18:45:14.788Z,96491.41
2023-04-10T18:47:42.853Z,96492.69
2023-04-10T18:50:11.677Z,96506.34
2023-04-10T18:52:39.702Z,96509.84
2023-04-10T18:55:08.401Z,96510.97
2023-04-10T18:57:36.294Z,96509.44
2023-04-10T19:00:08.154Z,96503.59
2023-04-10T19:02:36.247Z,96506.38
2023-04-10T19:05:04.368Z,96503.84
2023-04-10T19:07:33.228Z,96504.28
2023-04-10T19:10:01.186Z,96498.28
2023-04-10T19:12:29.149Z,96498.56
2023-04-10T19:14:57.056Z,96496.06
2023-04-10T19:17:26.382Z,96497.03
2023-04-10T19:19:55.482Z,96484.19
2023-04-10T19:22:23.539Z,96482.53
2023-04-10T19:24:51.576Z,96477.22
2023-04-10T19:27:19.455Z,96475.53
2023-04-10T19:29:47.409Z,96489.09
2023-04-10T19:32:15.336Z,96496.06
2023-04-10T19:34:51.034Z,96509.34
2023-04-10T19:37:20.975Z,96512.97
2023-04-10T19:39:48.986Z,96509.75
2023-04-10T19:42:17.120Z,96517.88
2023-04-10T19:44:45.071Z,96516.06
2023-04-10T19:47:12.900Z,96510.06
2023-04-10T19:49:40.805Z,96511.03
2023-04-10T19:52:10.402Z,96513.94
2023-04-10T19:54:38.413Z,96503.50
2023-04-10T19:57:06.454Z,96512.59
2023-04-10T19:59:36.302Z,96521.50
2023-04-10T20:02:04.417Z,96525.16
2023-04-10T20:04:32.417Z,96525.28
2023-04-10T20:07:00.967Z,96533.22
2023-04-10T20:09:30.383Z,96526.25
2023-04-10T20:11:58.228Z,96521.91
2023-04-10T20:14:26.316Z,96518.56
2023-04-10T20:16:54.212Z,96504.59
2023-04-10T20:19:22.158Z,96495.81
2023-04-10T20:21:50.047Z,96490.66
2023-04-10T20:24:17.914Z,96484.50
2023-04-10T20:26:47.188Z,96487.31
2023-04-10T20:29:15.126Z,96483.94
2023-04-10T20:31:43.129Z,96488.44
2023-04-10T20:34:11.117Z,96474.47
2023-04-10T20:36:40.374Z,96471.94
2023-04-10T20:39:08.378Z,96472.94
2023-04-10T20:41:36.507Z,96476.69
2023-04-10T20:44:06.905Z,96472.22
2023-04-10T20:46:35.075Z,96472.06
2023-04-10T20:49:02.988Z,96473.88
2023-04-10T20:51:31.523Z,96477.53
2023-04-10T20:53:59.412Z,96472.53
2023-04-10T20:56:36.702Z,96465.53
2023-04-10T20:59:12.374Z,96457.56
2023-04-10T21:01:40.526Z,96448.78
2023-04-10T21:04:08.580Z,96446.13
2023-04-10T21:06:36.524Z,96454.22
2023-04-10T21:09:04.631Z,96444.59
2023-04-10T21:11:32.986Z,96433.41
2023-04-10T21:14:00.933Z,96423.78
2023-04-10T21:16:31.461Z,96429.22
2023-04-10T21:18:59.362Z,96438.19
2023-04-10T21:21:28.078Z,96440.94
2023-04-10T21:23:56.091Z,96439.28
2023-04-10T21:26:23.945Z,96433.13
2023-04-10T21:28:51.905Z,96420.84
2023-04-10T21:31:19.792Z,96418.50
2023-04-10T21:33:49.544Z,96423.09
2023-04-10T21:36:17.699Z,96433.84
2023-04-10T21:38:45.652Z,96437.47
2023-04-10T21:41:13.649Z,96438.44
2023-04-10T21:43:43.093Z,96437.88
2023-04-10T21:46:11.276Z,96422.94
2023-04-10T21:48:39.670Z,96430.91
2023-04-10T21:51:09.207Z,96427.53
2023-04-10T21:53:37.164Z,96429.38
2023-04-10T21:56:05.642Z,96428.53
2023-04-10T21:58:33.950Z,96422.53
2023-04-10T22:01:02.311Z,96426.16
2023-04-10T22:03:30.981Z,96406.09
2023-04-10T22:05:58.990Z,96398.25
2023-04-10T22:08:28.326Z,96390.31
2023-04-10T22:10:56.352Z,96391.56
2023-04-10T22:13:30.741Z,96382.06
2023-04-10T22:15:59.267Z,96381.09
2023-04-10T22:18:27.188Z,96367.97
2023-04-10T22:20:55.221Z,96359.19
2023-04-10T22:23:23.255Z,96355.97
2023-04-10T22:25:52.506Z,96356.13
2023-04-10T22:28:20.526Z,96352.63
2023-04-10T22:30:48.484Z,96349.28
2023-04-10T22:33:16.470Z,96341.63
2023-04-10T22:35:44.884Z,96329.06
2023-04-10T22:38:13.253Z,96315.13
2023-04-10T22:40:41.176Z,96298.41
2023-04-10T22:43:11.017Z,96292.41
2023-04-10T22:45:40.816Z,96300.34
2023-04-10T22:48:08.885Z,96295.03
2023-04-10T22:50:37.460Z,96290.72
2023-04-10T22:53:05.649Z,96281.09
2023-04-10T22:55:34.824Z,96272.31
2023-04-10T22:58:02.669Z,96261.84
2023-04-10T23:00:34.036Z,96247.88
2023-04-10T23:03:02.222Z,96238.41
2023-04-10T23:05:30.407Z,96241.75
2023-04-10T23:07:59.427Z,96260.44
2023-04-10T23:10:27.398Z,96275.34
2023-04-10T23:12:55.348Z,96299.19
2023-04-10T23:15:23.245Z,96304.63
2023-04-10T23:17:52.779Z,96295.00
2023-04-10T23:20:20.943Z,96282.06
2023-04-10T23:22:48.897Z,96271.59
2023-04-10T23:25:16.739Z,96277.59
2023-04-10T23:27:44.611Z,96274.53
2023-04-10T23:30:12.800Z,96287.22
2023-04-10T23:32:40.803Z,96285.44
2023-04-10T23:35:10.811Z,96285.97
2023-04-10T23:37:38.702Z,96286.38
2023-04-10T23:40:07.866Z,96274.94
2023-04-10T23:42:35.751Z,96273.97
2023-04-10T23:45:03.707Z,96273.81
2023-04-10T23:47:31.594Z,96266.84
2023-04-10T23:49:59.539Z,96258.06
2023-04-10T23:52:29.303Z,96253.72
2023-04-10T23:54:57.301Z,96254.44
2023-04-10T23:57:27.782Z,96257.09
2023-04-10T23:59:55.643Z,96247.31
